Latest Weather Observations for Lake Grace

IDW60801

Issued at 12:05 pm WST Friday 28 November 2014 (issued every 30 minutes, with the page automatically refreshed every 10 minutes)

About weather observations | Map of weather stations | Latest weather observations for WA | Other Formats
Station Details ID: 010911 Name: LAKE GRACE Lat: -33.10 Lon: 118.46 Height: 286.0 m
Data from the previous 72 hours. | See also: Recent months at Lake Grace
Date/Time
WST
Temp
°C
App
Temp
°C
Dew
Point
Rel
Hum
%
Delta-T
°C
Wind Press
QNH
hPa
Press
MSL
hPa
Rain
since 9 am
mm
Dir
 
Spd
km/h
Gust
km/h
Spd
kts
Gust
kts
28/12:00pm 24.4 25.7 17.6 66 4.3 N 7 13 4 7 1009.1 1008.2 0.0
28/11:30am 22.8 22.9 16.6 68 3.8 N 11 22 6 12 1009.3 1008.4 0.0
28/11:00am 21.8 21.3 15.9 69 3.6 ENE 13 22 7 12 1009.0 1008.1 0.0
28/10:30am 21.8 21.5 16.5 72 3.3 NE 13 17 7 9 1009.7 1008.7 0.0
28/10:00am 21.9 22.9 17.7 77 2.6 E 9 15 5 8 1010.1 1009.2 0.0
28/09:30am 19.4 21.3 16.8 85 1.6 SE 2 6 1 3 1010.0 1009.1 0.0
28/09:00am 19.2 19.6 16.4 84 1.7 WNW 9 13 5 7 1010.5 1009.6 16.8
28/08:30am 19.3 19.5 16.7 85 1.6 WSW 11 17 6 9 1010.2 1009.3 16.8
28/08:00am 19.5 20.7 16.9 85 1.6 NNW 6 13 3 7 1010.2 1009.3 16.6
28/07:30am 18.6 19.5 16.2 86 1.4 NNW 6 7 3 4 1010.3 1009.4 16.6
28/07:00am 18.6 18.9 16.0 85 1.6 NE 9 15 5 8 1009.9 1009.0 16.4
28/06:30am 18.2 17.8 16.2 88 1.2 ENE 13 17 7 9 1009.7 1008.7 16.4
28/06:00am 18.0 18.7 16.0 88 1.2 SW 7 13 4 7 1010.6 1009.7 16.2
28/05:30am 18.5 17.6 15.9 85 1.6 NNW 15 19 8 10 1009.9 1009.0 15.2
28/05:00am 18.0 18.4 16.2 89 1.1 N 9 13 5 7 1009.0 1008.1 15.2
28/04:30am 17.8 19.0 16.0 89 1.1 NW 4 9 2 5 1009.2 1008.3 15.2
28/04:00am 17.9 18.2 15.9 88 1.2 NNE 9 13 5 7 1009.4 1008.5 15.2
28/03:30am 17.5 18.2 15.7 89 1.1 E 6 11 3 6 1009.0 1008.1 15.2
28/03:00am 17.5 18.1 15.7 89 1.1 E 7 13 4 7 1009.3 1008.4 15.2
28/02:30am 17.2 17.9 15.5 90 1.0 E 6 9 3 5 1009.3 1008.4 15.2
28/02:00am 17.1 17.2 15.4 90 1.0 ESE 9 13 5 7 1009.0 1008.1 15.2
28/01:30am 17.2 16.9 15.5 90 1.0 ESE 11 19 6 10 1009.1 1008.2 15.2
28/01:00am 17.4 18.0 15.7 90 1.0 ESE 7 11 4 6 1009.9 1009.0 15.2
28/12:30am 17.4 17.6 15.7 90 1.0 ESE 9 15 5 8 1010.1 1009.2 15.2
28/12:00am 17.5 17.0 15.8 90 1.0 ESE 13 17 7 9 1010.2 1009.3 15.2
 
Date/Time
WST
Temp
°C
App
Temp
°C
Dew
Point
Rel
Hum
%
Delta-T
°C
Wind Press
QNH
hPa
Press
MSL
hPa
Rain
since 9 am
mm
Dir
 
Spd
km/h
Gust
km/h
Spd
kts
Gust
kts
27/11:30pm 17.6 17.1 15.9 90 1.0 SE 13 15 7 8 1010.5 1009.6 15.2
27/11:00pm 17.9 17.8 16.1 89 1.1 SE 11 15 6 8 1010.8 1009.9 15.2
27/10:30pm 18.1 17.7 16.3 89 1.1 ESE 13 19 7 10 1011.0 1010.1 15.2
27/10:00pm 18.3 17.9 16.3 88 1.2 E 13 19 7 10 1011.6 1010.7 15.2
27/09:30pm 18.6 18.4 16.6 88 1.2 ESE 13 17 7 9 1011.8 1010.9 15.2
27/09:00pm 18.7 17.5 17.0 90 1.0 SSE 19 30 10 16 1010.9 1010.0 15.2
27/08:30pm 18.6 16.6 17.3 92 0.8 SSE 24 35 13 19 1010.5 1009.6 15.2
27/08:00pm 18.7 16.7 17.4 92 0.8 SSE 24 32 13 17 1011.4 1010.5 15.2
27/07:30pm 18.9 18.2 17.4 91 0.9 SSE 17 32 9 17 1012.1 1011.2 15.2
27/07:22pm 18.8 18.4 17.1 90 1.0 SE 15 22 8 12 1011.6 1010.7 15.0
27/07:00pm 19.3 18.1 17.1 87 1.4 W 19 26 10 14 1013.9 1013.0 11.0
27/06:30pm 20.9 19.6 17.3 80 2.2 S 20 32 11 17 1012.0 1011.1 3.6
27/06:00pm 22.0 22.5 16.5 71 3.4 SW 9 13 5 7 1011.0 1010.1 3.4
27/05:51pm 24.7 24.8 15.6 57 5.6 WSW 9 15 5 8 1011.2 1010.3 0.2
27/05:30pm 25.1 22.4 14.6 52 6.3 S 22 35 12 19 1009.1 1008.2 0.0
27/05:00pm 26.4 24.1 14.2 47 7.4 SSW 19 30 10 16 1009.9 1009.0 0.0
27/04:30pm 28.2 26.3 11.7 36 9.6 ESE 13 19 7 10 1009.2 1008.3 0.0
27/04:00pm 29.8 27.1 11.8 33 10.6 ESE 17 22 9 12 1009.1 1008.2 0.0
27/03:30pm 28.3 25.1 11.8 36 9.6 E 20 28 11 15 1009.6 1008.6 0.0
27/03:00pm 29.6 26.3 11.6 33 10.6 E 20 30 11 16 1009.4 1008.5 0.0
27/02:30pm 30.5 27.2 11.5 31 11.2 ESE 20 33 11 18 1009.7 1008.7 0.0
27/02:00pm 29.3 27.4 10.4 31 10.9 SE 11 17 6 9 1010.2 1009.3 0.0
27/01:30pm 29.4 26.9 11.0 32 10.7 ESE 15 22 8 12 1010.5 1009.6 0.0
27/01:00pm 28.8 25.8 10.5 32 10.5 ESE 17 30 9 16 1010.7 1009.8 0.0
27/12:30pm 29.2 26.0 9.8 30 11.0 E 17 24 9 13 1010.9 1010.0 0.0
27/12:00pm 29.5 25.6 8.5 27 11.7 ESE 19 24 10 13 1011.1 1010.2 0.0
27/11:30am 30.3 27.5 8.7 26 12.1 NNE 13 24 7 13 1011.5 1010.6 0.0
27/11:00am 30.3 27.0 8.1 25 12.3 ESE 15 20 8 11 1011.7 1010.8 0.0
27/10:30am 28.3 25.4 8.1 28 11.1 E 13 20 7 11 1012.4 1011.5 0.0
27/10:00am 27.1 24.4 9.0 32 10.0 E 13 20 7 11 1012.9 1012.1 0.0
27/09:30am 26.7 24.0 10.4 36 9.2 ENE 15 22 8 12 1013.0 1012.2 0.0
27/09:00am 25.3 22.7 10.7 40 8.3 ENE 15 22 8 12 1013.2 1012.3 0.0
27/08:30am 23.8 22.1 11.2 45 7.1 ENE 11 17 6 9 1013.3 1012.4 0.0
27/08:00am 22.0 21.5 12.5 54 5.5 ESE 7 9 4 5 1013.7 1012.8 0.0
27/07:30am 20.9 21.0 14.5 67 3.8 SSE 7 9 4 5 1013.6 1012.7 0.0
27/07:00am 20.5 21.0 15.5 73 3.0 SE 7 9 4 5 1013.8 1012.9 0.0
27/06:30am 20.6 20.6 15.2 71 3.2 SE 9 11 5 6 1013.6 1012.7 0.0
27/06:00am 20.7 20.2 15.0 70 3.4 WSW 11 19 6 10 1013.5 1012.6 0.0
27/05:30am 21.1 20.5 14.5 66 3.9 E 11 17 6 9 1012.8 1012.0 0.0
27/05:00am 20.4 20.2 14.7 70 3.4 ESE 9 13 5 7 1012.4 1011.5 0.0
27/04:30am 20.5 20.3 14.6 69 3.5 E 9 13 5 7 1012.2 1011.3 0.0
27/04:00am 20.3 20.8 14.9 71 3.2 E 6 7 3 4 1012.3 1011.4 0.0
27/03:30am 20.0 19.8 15.6 76 2.6 E 11 15 6 8 1012.0 1011.1 0.0
27/03:00am 20.1 20.4 15.1 73 3.0 SSE 7 9 4 5 1011.8 1010.9 0.0
27/02:30am 20.5 21.9 14.4 68 3.6 CALM 0 0 0 0 1012.3 1011.4 0.0
27/02:00am 20.8 21.3 14.0 65 4.0 NNE 4 7 2 4 1012.6 1011.7 0.0
27/01:30am 20.9 20.2 13.1 61 4.5 N 9 13 5 7 1013.0 1012.2 0.0
27/01:00am 21.5 21.4 13.2 59 4.8 SE 6 9 3 5 1012.9 1012.1 0.0
27/12:30am 21.7 21.3 13.1 58 5.0 S 7 9 4 5 1013.4 1012.5 0.0
27/12:00am 21.8 20.2 12.9 57 5.1 NE 13 20 7 11 1014.2 1013.3 0.0
 
Date/Time
WST
Temp
°C
App
Temp
°C
Dew
Point
Rel
Hum
%
Delta-T
°C
Wind Press
QNH
hPa
Press
MSL
hPa
Rain
since 9 am
mm
Dir
 
Spd
km/h
Gust
km/h
Spd
kts
Gust
kts
26/11:30pm 22.1 19.8 12.9 56 5.3 E 17 26 9 14 1013.5 1012.6 0.0
26/11:00pm 22.9 21.1 12.2 51 6.1 E 13 19 7 10 1013.4 1012.5 0.0
26/10:30pm 22.8 21.2 12.7 53 5.8 E 13 20 7 11 1013.0 1012.2 0.0
26/10:00pm 23.0 21.4 12.9 53 5.9 ESE 13 22 7 12 1013.2 1012.3 0.0
26/09:30pm 23.6 21.5 12.3 49 6.5 ESE 15 22 8 12 1013.0 1012.2 0.0
26/09:00pm 23.7 21.0 11.7 47 6.9 E 17 24 9 13 1012.5 1011.6 0.0
26/08:30pm 25.6 22.2 9.0 35 9.1 E 17 28 9 15 1012.3 1011.4 0.0
26/08:00pm 27.9 23.1 5.5 24 11.8 E 20 30 11 16 1012.3 1011.4 0.0
26/07:30pm 28.1 23.3 5.6 24 11.8 E 20 30 11 16 1012.3 1011.4 0.0
26/07:00pm 28.4 23.9 5.9 24 11.9 E 19 30 10 16 1011.9 1011.0 0.0
26/06:30pm 27.7 22.9 7.5 28 11.0 ENE 22 32 12 17 1012.0 1011.1 0.0
26/06:00pm 29.5 23.2 5.6 22 12.7 NE 28 41 15 22 1011.7 1010.8 0.0
26/05:30pm 30.7 24.9 4.4 19 13.8 NE 24 35 13 19 1011.5 1010.6 0.0
26/05:00pm 31.6 26.0 5.2 19 14.1 ENE 24 33 13 18 1011.1 1010.2 0.0
26/04:30pm 32.1 26.4 4.8 18 14.5 ENE 24 33 13 18 1011.3 1010.4 0.0
26/04:00pm 33.0 28.0 4.7 17 15.1 NE 20 33 11 18 1011.2 1010.3 0.0
26/03:30pm 32.3 27.8 4.2 17 14.8 NNE 17 24 9 13 1011.5 1010.6 0.0
26/03:00pm 32.4 27.7 5.0 18 14.6 NE 19 28 10 15 1011.9 1011.0 0.0
26/02:30pm 33.3 28.9 5.0 17 15.2 NNE 17 32 9 17 1012.3 1011.4 0.0
26/02:00pm 33.4 28.7 5.9 18 15.0 NE 20 32 11 17 1012.7 1011.8 0.0
26/01:30pm 33.0 28.5 6.3 19 14.6 NE 19 30 10 16 1013.2 1012.3 0.0
26/01:00pm 32.3 27.5 5.7 19 14.4 NE 20 39 11 21 1013.6 1012.7 0.0
26/12:30pm 31.8 27.1 6.1 20 13.9 NNE 20 33 11 18 1014.1 1013.2 0.0
26/12:00pm 30.9 25.4 6.0 21 13.4 NE 24 35 13 19 1014.5 1013.6 0.0
26/11:30am 30.7 25.2 5.9 21 13.3 NE 24 35 13 19 1015.0 1014.1 0.0
26/11:00am 28.8 23.5 6.8 25 11.9 NE 24 41 13 22 1015.8 1015.0 0.0
26/10:30am 28.0 22.2 6.2 25 11.6 ENE 26 39 14 21 1016.2 1015.4 0.0
26/10:00am 27.5 21.7 6.3 26 11.2 ENE 26 39 14 21 1016.6 1015.8 0.0
26/09:30am 25.4 21.0 7.5 32 9.6 ENE 20 30 11 16 1017.1 1016.2 0.0
26/09:00am 24.2 18.7 7.4 34 8.9 ENE 26 35 14 19 1017.4 1016.5 0.0
26/08:30am 22.2 17.6 8.3 41 7.4 ENE 22 33 12 18 1018.0 1017.1 0.0
26/08:00am 19.6 15.2 8.9 50 5.7 ENE 22 32 12 17 1018.3 1017.4 0.0
26/07:30am 18.6 15.2 9.1 54 5.0 ENE 17 24 9 13 1018.7 1017.8 0.0
26/07:00am 17.3 13.6 9.5 60 4.1 E 19 28 10 15 1018.8 1017.9 0.0
26/06:30am 15.4 10.7 9.3 67 3.2 E 24 37 13 20 1018.2 1017.3 0.0
26/06:00am 14.5 10.7 9.1 70 2.8 E 19 28 10 15 1018.1 1017.2 0.0
26/05:30am 13.6 10.2 9.3 75 2.2 E 17 26 9 14 1018.5 1017.6 0.0
26/05:00am 12.9 9.6 9.4 79 1.8 ESE 17 26 9 14 1018.2 1017.3 0.0
26/04:30am 13.0 10.1 9.6 80 1.8 ESE 15 24 8 13 1018.2 1017.3 0.0
26/04:00am 13.1 9.5 9.7 80 1.8 ESE 19 32 10 17 1017.8 1016.9 0.0
26/03:30am 13.2 10.5 10.2 82 1.6 ESE 15 26 8 14 1018.1 1017.2 0.0
26/03:00am 13.3 10.6 10.3 82 1.6 E 15 22 8 12 1018.0 1017.1 0.0
26/02:30am 13.5 10.5 10.5 82 1.6 ESE 17 32 9 17 1018.0 1017.1 0.0
26/02:00am 13.7 10.7 10.7 82 1.6 ESE 17 28 9 15 1018.0 1017.1 0.0
26/01:30am 13.8 10.3 10.8 82 1.6 ESE 20 32 11 17 1018.3 1017.4 0.0
26/01:00am 13.8 10.3 10.8 82 1.6 ESE 20 30 11 16 1018.4 1017.5 0.0
26/12:30am 14.0 10.5 10.8 81 1.7 ESE 20 30 11 16 1018.9 1018.1 0.0
26/12:00am 14.2 10.2 10.6 79 1.9 ESE 22 41 12 22 1019.0 1018.2 0.0
 
Date/Time
WST
Temp
°C
App
Temp
°C
Dew
Point
Rel
Hum
%
Delta-T
°C
Wind Press
QNH
hPa
Press
MSL
hPa
Rain
since 9 am
mm
Dir
 
Spd
km/h
Gust
km/h
Spd
kts
Gust
kts
25/11:30pm 14.5 9.8 10.7 78 2.0 E 26 39 14 21 1019.1 1018.3 0.0
25/11:00pm 14.8 10.5 10.6 76 2.2 ESE 24 43 13 23 1019.4 1018.6 0.0
25/10:30pm 15.1 10.8 10.7 75 2.4 ESE 24 35 13 19 1019.7 1018.9 0.0
25/10:00pm 15.4 10.7 10.8 74 2.5 ESE 26 35 14 19 1019.7 1018.9 0.0
25/09:30pm 15.8 11.5 10.8 72 2.7 SE 24 35 13 19 1019.6 1018.8 0.0
25/09:00pm 16.4 12.1 10.7 69 3.1 ESE 24 35 13 19 1019.4 1018.6 0.0
25/08:30pm 17.1 11.2 10.5 65 3.6 ESE 32 46 17 25 1018.8 1017.9 0.0
25/08:00pm 18.1 12.2 10.5 61 4.1 ESE 32 44 17 24 1018.6 1017.7 0.0
25/07:34pm 19.4 14.2 10.1 55 5.1 ESE 28 46 15 25 1018.3 1017.4 0.0
25/07:30pm 19.7 14.5 10.1 54 5.2 ESE 28 41 15 22 1018.4 1017.5 0.0
25/07:00pm 21.3 16.1 10.2 49 6.1 ESE 28 41 15 22 1018.2 1017.3 0.0
25/06:50pm 21.8 16.5 10.0 47 6.5 SE 28 46 15 25 1018.2 1017.3 0.0
25/06:30pm 23.6 17.9 9.9 42 7.6 ESE 30 43 16 23 1018.1 1017.2 0.0
25/06:00pm 27.7 22.8 4.1 22 12.1 ESE 19 28 10 15 1017.6 1016.7 0.0
25/05:30pm 28.0 23.3 3.0 20 12.6 ESE 17 24 9 13 1017.4 1016.5 0.0
25/05:00pm 28.4 24.1 3.3 20 12.7 SE 15 24 8 13 1017.3 1016.4 0.0
25/04:30pm 28.3 24.0 3.2 20 12.7 ENE 15 24 8 13 1017.4 1016.5 0.0
25/04:00pm 28.4 23.7 3.3 20 12.7 ESE 17 24 9 13 1017.7 1016.8 0.0
25/03:30pm 27.9 24.0 3.6 21 12.3 E 13 24 7 13 1017.8 1016.9 0.0
25/03:00pm 28.1 24.6 3.7 21 12.4 ESE 11 20 6 11 1018.1 1017.2 0.0
25/02:30pm 27.8 23.5 3.5 21 12.3 SE 15 24 8 13 1018.6 1017.7 0.0
25/02:00pm 27.5 23.7 3.9 22 12.0 ESE 13 22 7 12 1018.9 1018.1 0.0
25/01:30pm 26.9 22.7 4.0 23 11.6 ENE 15 24 8 13 1019.3 1018.5 0.0
25/01:00pm 26.0 21.2 4.5 25 10.9 ESE 19 28 10 15 1019.5 1018.7 0.0
25/12:30pm 25.9 21.1 5.5 27 10.6 E 20 26 11 14 1020.1 1019.3 0.0

Other Formats:

Comma delimited format used in spreadsheet applications
http://www.bom.gov.au/fwo/IDW60801/IDW60801.95637.axf

JavaScript Object Notation format (JSON) in row-major order
http://www.bom.gov.au/fwo/IDW60801/IDW60801.95637.json